Hauptseite
METAR-TAF:

METAR-TAF

Flughäfen :

Flughafen Clermont-Ferrand Auvergne

Clermont-Ferrand, Frankreich

Breite: 45-47N, Länge: 003-10E, Höhe: 332 m

Beobachtung

Neuester Wetterbericht von vor 42 Minuten, um 06:30 UTC
Wind 8 kt aus Nord, variierte zwischen Nordwest und Nord/Nordost
Temperatur 4°C
Luftfeuchtigkeit 81%
Luftdruck 1026 hPa
Sichtweite 10 km oder mehr
Leicht bewölkt in der Höhe von 1700 ft
Geschlossene Wolkendecke in der Höhe von 5800 ft

METAR: LFLC 120630Z AUTO 35008KT 320V020 9999 FEW017 OVC058 04/01 Q1026 NOSIG

Zeit: 09:12 (07:12 UTC)

Prognose

Neuester Wetterbericht von vor 2 Stunden und 12 Minuten, um 05:00 UTC
Gültige Prognose vom 12 um 06 UTC bis 13 um 06 UTC
Wind 8 kt aus Nord
Sichtweite 10 km oder mehr
Durchbrochene Bewölkung in der Höhe von 4000 ft
Übergehend zu
vom 12 um 08 UTC bis 12 um 10 UTC

TAF: LFLC 120500Z 1206/1306 36008KT 9999 BKN040 BECMG 1208/1210 NSC

Wetterbeobachtungen und Prognosen von mehr als 4000 Flughäfen (METAR und TAF Bericht).

Die verfügbaren Stationen werden durch gelbe und rote Markierungen auf der Karte dargestellt.

Führen Sie die Maus auf sie, um den Namen der Station zu sehen.

Darauf klicken, um die Beobachtung von Wetterbeobachtungen und Prognosen zu sehen.

Um die Karte zu ändern : klicken Sie auf den grünen Tasten mit einem schwarzen Kreuz Zum Vergrößern, auf den grünen Button mit einem Gedankenstrich zu verkleinern, oder auf die grünen Pfeile für benachbarte Karten.


METAR-TAF: